sensor_id;sensor_type;location;lat;lon;timestamp;P1;durP1;ratioP1;P2;durP2;ratioP2
50281;SDS011;36176;51.506;10.272;2023-09-12T00:01:36;12.45;;;9.73;;
50281;SDS011;36176;51.506;10.272;2023-09-12T00:04:03;14.15;;;10.07;;
50281;SDS011;36176;51.506;10.272;2023-09-12T00:06:30;13.57;;;9.75;;
50281;SDS011;36176;51.506;10.272;2023-09-12T00:08:58;11.77;;;9.50;;
50281;SDS011;36176;51.506;10.272;2023-09-12T00:11:25;11.10;;;9.10;;
50281;SDS011;36176;51.506;10.272;2023-09-12T00:13:53;11.70;;;9.98;;
50281;SDS011;36176;51.506;10.272;2023-09-12T00:16:20;11.10;;;9.60;;
50281;SDS011;36176;51.506;10.272;2023-09-12T00:18:47;13.50;;;10.00;;
50281;SDS011;36176;51.506;10.272;2023-09-12T00:21:15;10.50;;;9.32;;
50281;SDS011;36176;51.506;10.272;2023-09-12T00:23:42;13.73;;;9.57;;
50281;SDS011;36176;51.506;10.272;2023-09-12T00:26:09;14.50;;;11.02;;
50281;SDS011;36176;51.506;10.272;2023-09-12T00:28:38;15.63;;;10.43;;
50281;SDS011;36176;51.506;10.272;2023-09-12T00:31:05;15.27;;;11.35;;
50281;SDS011;36176;51.506;10.272;2023-09-12T00:33:32;14.02;;;10.43;;
50281;SDS011;36176;51.506;10.272;2023-09-12T00:36:02;16.30;;;10.37;;
50281;SDS011;36176;51.506;10.272;2023-09-12T00:38:29;12.65;;;9.48;;
50281;SDS011;36176;51.506;10.272;2023-09-12T00:40:57;14.73;;;10.73;;
50281;SDS011;36176;51.506;10.272;2023-09-12T00:43:24;15.05;;;9.95;;
50281;SDS011;36176;51.506;10.272;2023-09-12T00:45:51;13.98;;;10.68;;
50281;SDS011;36176;51.506;10.272;2023-09-12T00:48:18;15.48;;;11.05;;
50281;SDS011;36176;51.506;10.272;2023-09-12T00:50:48;18.13;;;11.70;;
50281;SDS011;36176;51.506;10.272;2023-09-12T00:53:16;16.33;;;12.73;;
50281;SDS011;36176;51.506;10.272;2023-09-12T00:55:46;17.45;;;11.50;;
50281;SDS011;36176;51.506;10.272;2023-09-12T00:58:17;13.68;;;11.45;;
50281;SDS011;36176;51.506;10.272;2023-09-12T01:00:45;10.45;;;9.40;;
50281;SDS011;36176;51.506;10.272;2023-09-12T01:03:12;11.00;;;9.82;;
50281;SDS011;36176;51.506;10.272;2023-09-12T01:05:41;18.50;;;11.30;;
50281;SDS011;36176;51.506;10.272;2023-09-12T01:08:09;14.20;;;10.20;;
50281;SDS011;36176;51.506;10.272;2023-09-12T01:10:37;14.55;;;10.45;;
50281;SDS011;36176;51.506;10.272;2023-09-12T01:13:04;13.17;;;9.50;;
50281;SDS011;36176;51.506;10.272;2023-09-12T01:15:33;10.30;;;9.13;;
50281;SDS011;36176;51.506;10.272;2023-09-12T01:18:01;12.60;;;10.18;;
50281;SDS011;36176;51.506;10.272;2023-09-12T01:20:29;13.85;;;10.50;;
50281;SDS011;36176;51.506;10.272;2023-09-12T01:28:43;10.97;;;9.87;;
50281;SDS011;36176;51.506;10.272;2023-09-12T01:31:12;12.40;;;10.20;;
50281;SDS011;36176;51.506;10.272;2023-09-12T01:33:40;14.38;;;10.00;;
50281;SDS011;36176;51.506;10.272;2023-09-12T01:36:08;14.02;;;10.30;;
50281;SDS011;36176;51.506;10.272;2023-09-12T01:38:36;15.23;;;9.60;;
50281;SDS011;36176;51.506;10.272;2023-09-12T01:41:04;12.13;;;9.55;;
50281;SDS011;36176;51.506;10.272;2023-09-12T01:43:31;12.30;;;10.35;;
50281;SDS011;36176;51.506;10.272;2023-09-12T01:46:01;12.43;;;9.57;;
50281;SDS011;36176;51.506;10.272;2023-09-12T01:48:32;10.85;;;9.73;;
50281;SDS011;36176;51.506;10.272;2023-09-12T01:51:03;14.07;;;10.40;;
50281;SDS011;36176;51.506;10.272;2023-09-12T01:53:32;15.88;;;10.98;;
50281;SDS011;36176;51.506;10.272;2023-09-12T01:56:01;13.80;;;11.07;;
50281;SDS011;36176;51.506;10.272;2023-09-12T01:58:28;14.07;;;10.73;;
50281;SDS011;36176;51.506;10.272;2023-09-12T02:00:55;13.93;;;9.63;;
50281;SDS011;36176;51.506;10.272;2023-09-12T02:03:22;16.63;;;11.17;;
50281;SDS011;36176;51.506;10.272;2023-09-12T02:05:50;16.37;;;11.70;;
50281;SDS011;36176;51.506;10.272;2023-09-12T02:08:16;13.43;;;12.03;;
50281;SDS011;36176;51.506;10.272;2023-09-12T02:10:44;10.60;;;9.50;;
50281;SDS011;36176;51.506;10.272;2023-09-12T02:13:11;12.00;;;10.57;;
50281;SDS011;36176;51.506;10.272;2023-09-12T02:15:38;12.63;;;9.47;;
50281;SDS011;36176;51.506;10.272;2023-09-12T02:18:05;14.07;;;11.37;;
50281;SDS011;36176;51.506;10.272;2023-09-12T02:20:37;10.90;;;9.00;;
50281;SDS011;36176;51.506;10.272;2023-09-12T02:23:05;12.93;;;10.80;;
50281;SDS011;36176;51.506;10.272;2023-09-12T02:25:32;15.20;;;11.95;;
50281;SDS011;36176;51.506;10.272;2023-09-12T02:27:59;16.93;;;12.90;;
50281;SDS011;36176;51.506;10.272;2023-09-12T02:30:27;16.93;;;12.73;;
50281;SDS011;36176;51.506;10.272;2023-09-12T02:32:54;14.10;;;11.93;;
50281;SDS011;36176;51.506;10.272;2023-09-12T02:35:21;12.87;;;11.17;;
50281;SDS011;36176;51.506;10.272;2023-09-12T02:37:48;14.37;;;10.90;;
50281;SDS011;36176;51.506;10.272;2023-09-12T02:40:15;11.60;;;10.33;;
50281;SDS011;36176;51.506;10.272;2023-09-12T02:42:43;12.53;;;10.00;;
50281;SDS011;36176;51.506;10.272;2023-09-12T02:45:24;15.27;;;10.27;;
50281;SDS011;36176;51.506;10.272;2023-09-12T02:47:51;13.90;;;12.57;;
50281;SDS011;36176;51.506;10.272;2023-09-12T02:50:19;14.73;;;13.07;;
50281;SDS011;36176;51.506;10.272;2023-09-12T02:52:46;12.27;;;10.53;;
50281;SDS011;36176;51.506;10.272;2023-09-12T02:55:13;12.50;;;11.17;;
50281;SDS011;36176;51.506;10.272;2023-09-12T02:57:40;13.03;;;10.77;;
50281;SDS011;36176;51.506;10.272;2023-09-12T03:00:07;18.37;;;14.53;;
50281;SDS011;36176;51.506;10.272;2023-09-12T03:02:35;17.77;;;15.07;;
50281;SDS011;36176;51.506;10.272;2023-09-12T03:05:02;17.47;;;14.57;;
50281;SDS011;36176;51.506;10.272;2023-09-12T03:07:30;20.00;;;15.23;;
50281;SDS011;36176;51.506;10.272;2023-09-12T03:09:57;17.37;;;13.67;;
50281;SDS011;36176;51.506;10.272;2023-09-12T03:12:24;16.50;;;12.60;;
50281;SDS011;36176;51.506;10.272;2023-09-12T03:14:52;12.87;;;11.40;;
50281;SDS011;36176;51.506;10.272;2023-09-12T03:17:22;16.03;;;11.70;;
50281;SDS011;36176;51.506;10.272;2023-09-12T03:19:49;17.17;;;13.77;;
50281;SDS011;36176;51.506;10.272;2023-09-12T03:22:16;16.23;;;12.00;;
50281;SDS011;36176;51.506;10.272;2023-09-12T03:24:43;14.73;;;12.67;;
50281;SDS011;36176;51.506;10.272;2023-09-12T03:27:10;12.43;;;11.03;;
50281;SDS011;36176;51.506;10.272;2023-09-12T03:29:38;13.40;;;10.00;;
50281;SDS011;36176;51.506;10.272;2023-09-12T03:32:05;13.43;;;10.33;;
50281;SDS011;36176;51.506;10.272;2023-09-12T03:34:35;12.07;;;10.27;;
50281;SDS011;36176;51.506;10.272;2023-09-12T03:37:02;14.60;;;10.33;;
50281;SDS011;36176;51.506;10.272;2023-09-12T03:39:30;13.10;;;11.20;;
50281;SDS011;36176;51.506;10.272;2023-09-12T03:41:57;14.20;;;11.77;;
50281;SDS011;36176;51.506;10.272;2023-09-12T03:44:24;13.47;;;11.50;;
50281;SDS011;36176;51.506;10.272;2023-09-12T03:46:51;12.67;;;11.33;;
50281;SDS011;36176;51.506;10.272;2023-09-12T03:49:18;12.23;;;10.97;;
50281;SDS011;36176;51.506;10.272;2023-09-12T03:51:45;15.33;;;12.80;;
50281;SDS011;36176;51.506;10.272;2023-09-12T03:54:12;12.90;;;10.53;;
50281;SDS011;36176;51.506;10.272;2023-09-12T03:56:39;11.93;;;10.57;;
50281;SDS011;36176;51.506;10.272;2023-09-12T03:59:09;15.53;;;12.67;;
50281;SDS011;36176;51.506;10.272;2023-09-12T04:01:36;16.17;;;13.43;;
50281;SDS011;36176;51.506;10.272;2023-09-12T04:04:03;12.67;;;10.93;;
50281;SDS011;36176;51.506;10.272;2023-09-12T04:06:31;16.67;;;13.00;;
50281;SDS011;36176;51.506;10.272;2023-09-12T04:08:58;16.17;;;13.20;;
50281;SDS011;36176;51.506;10.272;2023-09-12T04:11:25;14.10;;;11.73;;
50281;SDS011;36176;51.506;10.272;2023-09-12T04:14:12;14.33;;;12.87;;
50281;SDS011;36176;51.506;10.272;2023-09-12T04:16:40;13.73;;;12.43;;
50281;SDS011;36176;51.506;10.272;2023-09-12T04:19:07;13.40;;;12.00;;
50281;SDS011;36176;51.506;10.272;2023-09-12T04:21:35;15.90;;;12.97;;
50281;SDS011;36176;51.506;10.272;2023-09-12T04:24:02;13.33;;;11.43;;
50281;SDS011;36176;51.506;10.272;2023-09-12T04:26:29;14.60;;;13.07;;
50281;SDS011;36176;51.506;10.272;2023-09-12T04:28:56;14.40;;;10.87;;
50281;SDS011;36176;51.506;10.272;2023-09-12T04:31:23;18.03;;;13.20;;
50281;SDS011;36176;51.506;10.272;2023-09-12T04:33:53;14.10;;;12.60;;
50281;SDS011;36176;51.506;10.272;2023-09-12T04:36:20;21.27;;;16.33;;
50281;SDS011;36176;51.506;10.272;2023-09-12T04:38:52;22.57;;;19.50;;
50281;SDS011;36176;51.506;10.272;2023-09-12T04:41:19;18.77;;;16.77;;
50281;SDS011;36176;51.506;10.272;2023-09-12T04:43:46;24.27;;;20.83;;
50281;SDS011;36176;51.506;10.272;2023-09-12T04:46:13;23.43;;;19.00;;
50281;SDS011;36176;51.506;10.272;2023-09-12T04:48:41;20.83;;;18.50;;
50281;SDS011;36176;51.506;10.272;2023-09-12T04:51:08;21.60;;;17.73;;
50281;SDS011;36176;51.506;10.272;2023-09-12T04:53:35;16.10;;;13.87;;
50281;SDS011;36176;51.506;10.272;2023-09-12T04:56:03;20.63;;;16.57;;
50281;SDS011;36176;51.506;10.272;2023-09-12T04:58:31;13.93;;;11.47;;
50281;SDS011;36176;51.506;10.272;2023-09-12T05:00:59;14.80;;;11.30;;
50281;SDS011;36176;51.506;10.272;2023-09-12T05:03:26;12.20;;;11.00;;
50281;SDS011;36176;51.506;10.272;2023-09-12T05:05:53;15.67;;;12.40;;
50281;SDS011;36176;51.506;10.272;2023-09-12T05:08:20;13.27;;;11.80;;
50281;SDS011;36176;51.506;10.272;2023-09-12T05:10:48;17.57;;;14.43;;
50281;SDS011;36176;51.506;10.272;2023-09-12T05:13:15;14.87;;;13.13;;
50281;SDS011;36176;51.506;10.272;2023-09-12T05:15:43;15.17;;;13.33;;
50281;SDS011;36176;51.506;10.272;2023-09-12T05:18:10;13.17;;;11.33;;
50281;SDS011;36176;51.506;10.272;2023-09-12T05:20:37;17.73;;;14.63;;
50281;SDS011;36176;51.506;10.272;2023-09-12T05:23:05;16.17;;;14.10;;
50281;SDS011;36176;51.506;10.272;2023-09-12T05:25:32;19.60;;;15.90;;
50281;SDS011;36176;51.506;10.272;2023-09-12T05:27:59;17.33;;;13.83;;
50281;SDS011;36176;51.506;10.272;2023-09-12T05:30:26;18.27;;;14.73;;
50281;SDS011;36176;51.506;10.272;2023-09-12T05:32:54;17.90;;;15.03;;
50281;SDS011;36176;51.506;10.272;2023-09-12T05:35:21;18.17;;;14.87;;
50281;SDS011;36176;51.506;10.272;2023-09-12T05:37:49;33.80;;;30.30;;
50281;SDS011;36176;51.506;10.272;2023-09-12T05:40:17;25.63;;;23.07;;
50281;SDS011;36176;51.506;10.272;2023-09-12T05:42:46;21.97;;;19.53;;
50281;SDS011;36176;51.506;10.272;2023-09-12T05:45:13;24.00;;;18.53;;
50281;SDS011;36176;51.506;10.272;2023-09-12T05:47:40;19.63;;;17.23;;
50281;SDS011;36176;51.506;10.272;2023-09-12T05:50:07;19.67;;;15.00;;
50281;SDS011;36176;51.506;10.272;2023-09-12T05:52:35;16.67;;;14.97;;
50281;SDS011;36176;51.506;10.272;2023-09-12T05:55:02;20.63;;;17.37;;
50281;SDS011;36176;51.506;10.272;2023-09-12T05:57:30;17.57;;;14.53;;
50281;SDS011;36176;51.506;10.272;2023-09-12T05:59:57;18.13;;;15.80;;
50281;SDS011;36176;51.506;10.272;2023-09-12T06:02:24;18.60;;;14.70;;
50281;SDS011;36176;51.506;10.272;2023-09-12T06:04:51;20.73;;;15.23;;
50281;SDS011;36176;51.506;10.272;2023-09-12T06:07:19;16.83;;;14.63;;
50281;SDS011;36176;51.506;10.272;2023-09-12T06:09:46;23.53;;;17.13;;
50281;SDS011;36176;51.506;10.272;2023-09-12T06:12:13;20.80;;;16.07;;
50281;SDS011;36176;51.506;10.272;2023-09-12T06:14:40;19.50;;;15.35;;
50281;SDS011;36176;51.506;10.272;2023-09-12T06:17:07;15.60;;;13.63;;
50281;SDS011;36176;51.506;10.272;2023-09-12T06:19:34;23.00;;;15.93;;
50281;SDS011;36176;51.506;10.272;2023-09-12T06:22:01;19.08;;;15.18;;
50281;SDS011;36176;51.506;10.272;2023-09-12T06:24:28;15.77;;;13.00;;
50281;SDS011;36176;51.506;10.272;2023-09-12T06:26:56;18.73;;;13.07;;
50281;SDS011;36176;51.506;10.272;2023-09-12T06:29:23;18.38;;;13.90;;
50281;SDS011;36176;51.506;10.272;2023-09-12T06:31:50;19.40;;;12.65;;
50281;SDS011;36176;51.506;10.272;2023-09-12T06:34:17;17.63;;;13.10;;
50281;SDS011;36176;51.506;10.272;2023-09-12T06:36:45;19.55;;;15.30;;
50281;SDS011;36176;51.506;10.272;2023-09-12T06:39:12;15.95;;;13.68;;
50281;SDS011;36176;51.506;10.272;2023-09-12T06:41:39;22.08;;;15.45;;
50281;SDS011;36176;51.506;10.272;2023-09-12T06:44:07;17.42;;;14.27;;
50281;SDS011;36176;51.506;10.272;2023-09-12T06:46:34;21.02;;;13.05;;
50281;SDS011;36176;51.506;10.272;2023-09-12T06:49:01;17.10;;;13.27;;
50281;SDS011;36176;51.506;10.272;2023-09-12T06:51:29;17.92;;;12.43;;
50281;SDS011;36176;51.506;10.272;2023-09-12T06:54:00;17.90;;;13.65;;
50281;SDS011;36176;51.506;10.272;2023-09-12T06:56:28;17.30;;;12.63;;
50281;SDS011;36176;51.506;10.272;2023-09-12T06:58:55;17.27;;;13.05;;
50281;SDS011;36176;51.506;10.272;2023-09-12T07:01:22;14.30;;;12.27;;
50281;SDS011;36176;51.506;10.272;2023-09-12T07:03:49;15.32;;;11.80;;
50281;SDS011;36176;51.506;10.272;2023-09-12T07:06:16;17.45;;;12.65;;
50281;SDS011;36176;51.506;10.272;2023-09-12T07:08:43;20.10;;;11.93;;
50281;SDS011;36176;51.506;10.272;2023-09-12T07:11:11;15.40;;;12.30;;
50281;SDS011;36176;51.506;10.272;2023-09-12T07:13:38;18.85;;;12.55;;
50281;SDS011;36176;51.506;10.272;2023-09-12T07:16:05;16.38;;;12.20;;
50281;SDS011;36176;51.506;10.272;2023-09-12T07:18:32;21.10;;;13.32;;
50281;SDS011;36176;51.506;10.272;2023-09-12T07:21:05;17.10;;;12.80;;
50281;SDS011;36176;51.506;10.272;2023-09-12T07:23:32;16.40;;;13.88;;
50281;SDS011;36176;51.506;10.272;2023-09-12T07:25:59;15.13;;;12.93;;
50281;SDS011;36176;51.506;10.272;2023-09-12T07:28:27;16.17;;;12.77;;
50281;SDS011;36176;51.506;10.272;2023-09-12T07:30:54;16.77;;;12.90;;
50281;SDS011;36176;51.506;10.272;2023-09-12T07:33:22;14.15;;;12.73;;
50281;SDS011;36176;51.506;10.272;2023-09-12T07:35:51;18.25;;;12.48;;
50281;SDS011;36176;51.506;10.272;2023-09-12T07:40:47;13.40;;;11.95;;
50281;SDS011;36176;51.506;10.272;2023-09-12T07:43:15;14.23;;;11.68;;
50281;SDS011;36176;51.506;10.272;2023-09-12T07:45:42;17.17;;;12.65;;
50281;SDS011;36176;51.506;10.272;2023-09-12T07:48:09;14.00;;;11.98;;
50281;SDS011;36176;51.506;10.272;2023-09-12T07:50:37;15.07;;;11.35;;
50281;SDS011;36176;51.506;10.272;2023-09-12T07:53:05;15.02;;;12.10;;
50281;SDS011;36176;51.506;10.272;2023-09-12T07:55:36;15.55;;;12.02;;
50281;SDS011;36176;51.506;10.272;2023-09-12T07:58:03;16.80;;;12.93;;
50281;SDS011;36176;51.506;10.272;2023-09-12T08:00:30;16.33;;;13.18;;
50281;SDS011;36176;51.506;10.272;2023-09-12T08:02:58;16.33;;;13.10;;
50281;SDS011;36176;51.506;10.272;2023-09-12T08:05:25;15.95;;;12.52;;
50281;SDS011;36176;51.506;10.272;2023-09-12T08:07:52;17.65;;;12.80;;
50281;SDS011;36176;51.506;10.272;2023-09-12T08:10:19;17.33;;;12.50;;
50281;SDS011;36176;51.506;10.272;2023-09-12T08:12:47;16.75;;;11.65;;
50281;SDS011;36176;51.506;10.272;2023-09-12T08:15:14;20.50;;;12.93;;
50281;SDS011;36176;51.506;10.272;2023-09-12T08:17:41;16.77;;;12.35;;
50281;SDS011;36176;51.506;10.272;2023-09-12T08:20:08;14.40;;;11.70;;
50281;SDS011;36176;51.506;10.272;2023-09-12T08:22:36;17.73;;;11.30;;
50281;SDS011;36176;51.506;10.272;2023-09-12T08:25:04;15.30;;;11.77;;
50281;SDS011;36176;51.506;10.272;2023-09-12T08:27:31;17.90;;;11.57;;
50281;SDS011;36176;51.506;10.272;2023-09-12T08:29:59;16.90;;;11.18;;
50281;SDS011;36176;51.506;10.272;2023-09-12T08:32:26;16.52;;;10.52;;
50281;SDS011;36176;51.506;10.272;2023-09-12T08:34:53;15.32;;;10.25;;
50281;SDS011;36176;51.506;10.272;2023-09-12T08:37:21;13.13;;;9.77;;
50281;SDS011;36176;51.506;10.272;2023-09-12T08:39:48;15.32;;;10.57;;
50281;SDS011;36176;51.506;10.272;2023-09-12T08:42:15;14.15;;;10.10;;
50281;SDS011;36176;51.506;10.272;2023-09-12T08:44:43;13.80;;;10.43;;
50281;SDS011;36176;51.506;10.272;2023-09-12T08:47:11;13.20;;;10.95;;
50281;SDS011;36176;51.506;10.272;2023-09-12T08:49:40;14.90;;;10.57;;
50281;SDS011;36176;51.506;10.272;2023-09-12T08:52:07;16.98;;;10.88;;
50281;SDS011;36176;51.506;10.272;2023-09-12T08:54:34;17.75;;;11.02;;
50281;SDS011;36176;51.506;10.272;2023-09-12T08:57:02;15.23;;;11.65;;
50281;SDS011;36176;51.506;10.272;2023-09-12T08:59:31;14.48;;;10.80;;
50281;SDS011;36176;51.506;10.272;2023-09-12T09:02:00;16.70;;;11.65;;
50281;SDS011;36176;51.506;10.272;2023-09-12T09:04:29;16.15;;;12.20;;
50281;SDS011;36176;51.506;10.272;2023-09-12T09:06:57;13.07;;;11.63;;
50281;SDS011;36176;51.506;10.272;2023-09-12T09:09:26;14.73;;;11.48;;
50281;SDS011;36176;51.506;10.272;2023-09-12T09:11:54;15.43;;;11.48;;
50281;SDS011;36176;51.506;10.272;2023-09-12T09:14:21;21.45;;;11.95;;
50281;SDS011;36176;51.506;10.272;2023-09-12T09:16:49;15.23;;;11.02;;
50281;SDS011;36176;51.506;10.272;2023-09-12T09:19:16;13.98;;;10.63;;
50281;SDS011;36176;51.506;10.272;2023-09-12T09:21:44;15.65;;;11.25;;
50281;SDS011;36176;51.506;10.272;2023-09-12T09:24:13;15.52;;;11.90;;
50281;SDS011;36176;51.506;10.272;2023-09-12T09:26:41;18.33;;;11.02;;
50281;SDS011;36176;51.506;10.272;2023-09-12T09:29:20;14.50;;;10.18;;
50281;SDS011;36176;51.506;10.272;2023-09-12T09:31:49;14.35;;;10.30;;
50281;SDS011;36176;51.506;10.272;2023-09-12T09:34:18;19.77;;;11.70;;
50281;SDS011;36176;51.506;10.272;2023-09-12T09:36:50;15.45;;;11.10;;
50281;SDS011;36176;51.506;10.272;2023-09-12T09:39:19;14.60;;;10.20;;
50281;SDS011;36176;51.506;10.272;2023-09-12T09:41:55;16.17;;;10.38;;
50281;SDS011;36176;51.506;10.272;2023-09-12T09:44:24;14.75;;;10.50;;
50281;SDS011;36176;51.506;10.272;2023-09-12T09:46:58;14.48;;;9.52;;
50281;SDS011;36176;51.506;10.272;2023-09-12T09:49:26;13.30;;;8.98;;
50281;SDS011;36176;51.506;10.272;2023-09-12T09:51:54;13.30;;;9.55;;
50281;SDS011;36176;51.506;10.272;2023-09-12T09:54:23;14.35;;;9.35;;
50281;SDS011;36176;51.506;10.272;2023-09-12T09:56:56;13.85;;;9.75;;
50281;SDS011;36176;51.506;10.272;2023-09-12T09:59:24;11.70;;;7.85;;
50281;SDS011;36176;51.506;10.272;2023-09-12T10:01:59;8.65;;;6.13;;
50281;SDS011;36176;51.506;10.272;2023-09-12T10:04:27;6.70;;;5.65;;
50281;SDS011;36176;51.506;10.272;2023-09-12T10:06:56;10.60;;;6.32;;
50281;SDS011;36176;51.506;10.272;2023-09-12T10:09:27;9.88;;;6.00;;
50281;SDS011;36176;51.506;10.272;2023-09-12T10:11:57;9.35;;;6.20;;
50281;SDS011;36176;51.506;10.272;2023-09-12T10:14:25;7.18;;;5.90;;
50281;SDS011;36176;51.506;10.272;2023-09-12T10:16:55;7.53;;;5.65;;
50281;SDS011;36176;51.506;10.272;2023-09-12T10:20:15;6.60;;;5.65;;
50281;SDS011;36176;51.506;10.272;2023-09-12T10:22:31;9.25;;;5.80;;
50281;SDS011;36176;51.506;10.272;2023-09-12T10:25:02;11.82;;;5.70;;
50281;SDS011;36176;51.506;10.272;2023-09-12T10:27:30;11.88;;;5.88;;
50281;SDS011;36176;51.506;10.272;2023-09-12T10:29:58;13.45;;;6.15;;
50281;SDS011;36176;51.506;10.272;2023-09-12T10:32:26;8.05;;;5.65;;
50281;SDS011;36176;51.506;10.272;2023-09-12T10:34:56;7.75;;;5.47;;
50281;SDS011;36176;51.506;10.272;2023-09-12T10:37:26;7.80;;;5.90;;
50281;SDS011;36176;51.506;10.272;2023-09-12T10:39:56;8.60;;;5.53;;
50281;SDS011;36176;51.506;10.272;2023-09-12T10:42:26;7.35;;;5.80;;
50281;SDS011;36176;51.506;10.272;2023-09-12T10:44:54;6.15;;;5.45;;
50281;SDS011;36176;51.506;10.272;2023-09-12T10:47:23;7.88;;;5.30;;
50281;SDS011;36176;51.506;10.272;2023-09-12T10:49:50;6.35;;;5.32;;
50281;SDS011;36176;51.506;10.272;2023-09-12T10:52:27;6.95;;;5.28;;
50281;SDS011;36176;51.506;10.272;2023-09-12T10:54:55;12.65;;;5.40;;
50281;SDS011;36176;51.506;10.272;2023-09-12T10:57:23;6.55;;;5.35;;
50281;SDS011;36176;51.506;10.272;2023-09-12T11:02:37;7.32;;;5.22;;
50281;SDS011;36176;51.506;10.272;2023-09-12T11:05:06;7.30;;;5.40;;
50281;SDS011;36176;51.506;10.272;2023-09-12T11:07:58;10.85;;;5.38;;
50281;SDS011;36176;51.506;10.272;2023-09-12T11:10:26;7.88;;;5.20;;
50281;SDS011;36176;51.506;10.272;2023-09-12T11:12:54;11.40;;;5.03;;
50281;SDS011;36176;51.506;10.272;2023-09-12T11:15:24;11.85;;;5.60;;
50281;SDS011;36176;51.506;10.272;2023-09-12T11:18:05;8.50;;;5.20;;
50281;SDS011;36176;51.506;10.272;2023-09-12T11:23:35;8.82;;;4.90;;
50281;SDS011;36176;51.506;10.272;2023-09-12T11:26:02;9.07;;;5.10;;
50281;SDS011;36176;51.506;10.272;2023-09-12T11:28:30;5.97;;;4.90;;
50281;SDS011;36176;51.506;10.272;2023-09-12T11:30:59;11.13;;;5.68;;
50281;SDS011;36176;51.506;10.272;2023-09-12T11:33:26;10.45;;;5.53;;
50281;SDS011;36176;51.506;10.272;2023-09-12T11:35:54;6.72;;;5.30;;
50281;SDS011;36176;51.506;10.272;2023-09-12T11:38:28;10.15;;;5.18;;
50281;SDS011;36176;51.506;10.272;2023-09-12T11:40:57;7.97;;;5.70;;
50281;SDS011;36176;51.506;10.272;2023-09-12T11:43:25;10.93;;;5.78;;
50281;SDS011;36176;51.506;10.272;2023-09-12T11:45:54;8.90;;;5.45;;
50281;SDS011;36176;51.506;10.272;2023-09-12T11:48:23;14.02;;;5.97;;
50281;SDS011;36176;51.506;10.272;2023-09-12T11:50:54;11.15;;;6.10;;
50281;SDS011;36176;51.506;10.272;2023-09-12T11:53:26;7.95;;;5.50;;
50281;SDS011;36176;51.506;10.272;2023-09-12T11:55:55;9.05;;;5.50;;
50281;SDS011;36176;51.506;10.272;2023-09-12T11:58:24;12.80;;;5.75;;
50281;SDS011;36176;51.506;10.272;2023-09-12T12:00:53;11.57;;;5.53;;
50281;SDS011;36176;51.506;10.272;2023-09-12T12:03:22;13.75;;;5.80;;
50281;SDS011;36176;51.506;10.272;2023-09-12T12:05:54;8.43;;;6.35;;
50281;SDS011;36176;51.506;10.272;2023-09-12T12:11:12;6.30;;;5.70;;
50281;SDS011;36176;51.506;10.272;2023-09-12T12:13:39;8.05;;;7.30;;
50281;SDS011;36176;51.506;10.272;2023-09-12T12:16:16;7.47;;;6.50;;
50281;SDS011;36176;51.506;10.272;2023-09-12T12:18:44;6.20;;;5.53;;
50281;SDS011;36176;51.506;10.272;2023-09-12T12:21:11;6.47;;;5.80;;
50281;SDS011;36176;51.506;10.272;2023-09-12T12:23:38;9.50;;;6.30;;
50281;SDS011;36176;51.506;10.272;2023-09-12T12:26:07;8.57;;;5.57;;
50281;SDS011;36176;51.506;10.272;2023-09-12T12:28:35;6.47;;;5.40;;
50281;SDS011;36176;51.506;10.272;2023-09-12T12:31:02;7.88;;;5.82;;
50281;SDS011;36176;51.506;10.272;2023-09-12T12:33:30;8.45;;;6.20;;
50281;SDS011;36176;51.506;10.272;2023-09-12T12:36:17;9.98;;;6.20;;
50281;SDS011;36176;51.506;10.272;2023-09-12T12:38:46;8.65;;;6.05;;
50281;SDS011;36176;51.506;10.272;2023-09-12T12:41:24;7.25;;;5.90;;
50281;SDS011;36176;51.506;10.272;2023-09-12T12:44:01;8.90;;;5.85;;
50281;SDS011;36176;51.506;10.272;2023-09-12T12:46:29;5.68;;;5.13;;
50281;SDS011;36176;51.506;10.272;2023-09-12T12:48:57;8.23;;;5.60;;
50281;SDS011;36176;51.506;10.272;2023-09-12T12:51:24;8.57;;;5.15;;
50281;SDS011;36176;51.506;10.272;2023-09-12T12:53:53;9.45;;;5.40;;
50281;SDS011;36176;51.506;10.272;2023-09-12T12:56:26;6.30;;;4.90;;
50281;SDS011;36176;51.506;10.272;2023-09-12T12:58:58;7.65;;;5.13;;
50281;SDS011;36176;51.506;10.272;2023-09-12T13:01:26;6.82;;;5.32;;
50281;SDS011;36176;51.506;10.272;2023-09-12T13:03:53;8.20;;;5.53;;
50281;SDS011;36176;51.506;10.272;2023-09-12T13:06:21;6.45;;;5.88;;
50281;SDS011;36176;51.506;10.272;2023-09-12T13:08:49;8.23;;;5.45;;
50281;SDS011;36176;51.506;10.272;2023-09-12T13:11:16;6.30;;;5.70;;
50281;SDS011;36176;51.506;10.272;2023-09-12T13:13:44;8.43;;;5.70;;
50281;SDS011;36176;51.506;10.272;2023-09-12T13:16:14;10.82;;;5.72;;
50281;SDS011;36176;51.506;10.272;2023-09-12T13:18:42;6.88;;;5.55;;
50281;SDS011;36176;51.506;10.272;2023-09-12T13:21:10;8.70;;;5.07;;
50281;SDS011;36176;51.506;10.272;2023-09-12T13:23:37;6.32;;;5.22;;
50281;SDS011;36176;51.506;10.272;2023-09-12T13:26:06;5.60;;;4.93;;
50281;SDS011;36176;51.506;10.272;2023-09-12T13:28:34;6.28;;;5.38;;
50281;SDS011;36176;51.506;10.272;2023-09-12T13:31:02;8.88;;;6.15;;
50281;SDS011;36176;51.506;10.272;2023-09-12T13:33:29;7.95;;;6.05;;
50281;SDS011;36176;51.506;10.272;2023-09-12T13:35:56;8.35;;;5.50;;
50281;SDS011;36176;51.506;10.272;2023-09-12T13:38:23;8.27;;;5.75;;
50281;SDS011;36176;51.506;10.272;2023-09-12T13:40:51;9.40;;;5.65;;
50281;SDS011;36176;51.506;10.272;2023-09-12T13:43:18;7.20;;;5.65;;
50281;SDS011;36176;51.506;10.272;2023-09-12T13:45:45;6.57;;;5.68;;
50281;SDS011;36176;51.506;10.272;2023-09-12T13:48:13;6.20;;;5.60;;
50281;SDS011;36176;51.506;10.272;2023-09-12T13:50:40;9.30;;;6.10;;
50281;SDS011;36176;51.506;10.272;2023-09-12T13:53:08;7.53;;;5.90;;
50281;SDS011;36176;51.506;10.272;2023-09-12T13:55:35;10.10;;;6.00;;
50281;SDS011;36176;51.506;10.272;2023-09-12T13:58:15;7.40;;;5.97;;
50281;SDS011;36176;51.506;10.272;2023-09-12T14:00:42;6.68;;;5.97;;
50281;SDS011;36176;51.506;10.272;2023-09-12T14:03:10;8.15;;;5.40;;
50281;SDS011;36176;51.506;10.272;2023-09-12T14:05:37;6.80;;;5.53;;
50281;SDS011;36176;51.506;10.272;2023-09-12T14:08:06;8.15;;;6.28;;
50281;SDS011;36176;51.506;10.272;2023-09-12T14:10:34;10.52;;;6.20;;
50281;SDS011;36176;51.506;10.272;2023-09-12T14:13:04;8.77;;;5.95;;
50281;SDS011;36176;51.506;10.272;2023-09-12T14:15:47;7.80;;;6.03;;
50281;SDS011;36176;51.506;10.272;2023-09-12T14:18:16;9.93;;;7.00;;
50281;SDS011;36176;51.506;10.272;2023-09-12T14:20:45;8.48;;;6.28;;
50281;SDS011;36176;51.506;10.272;2023-09-12T14:23:14;8.57;;;6.63;;
50281;SDS011;36176;51.506;10.272;2023-09-12T14:25:42;10.80;;;6.50;;
50281;SDS011;36176;51.506;10.272;2023-09-12T14:28:09;7.55;;;6.28;;
50281;SDS011;36176;51.506;10.272;2023-09-12T14:30:37;9.57;;;6.30;;
50281;SDS011;36176;51.506;10.272;2023-09-12T14:33:05;11.88;;;6.30;;
50281;SDS011;36176;51.506;10.272;2023-09-12T14:35:32;9.65;;;6.47;;
50281;SDS011;36176;51.506;10.272;2023-09-12T14:37:59;9.90;;;6.40;;
50281;SDS011;36176;51.506;10.272;2023-09-12T14:40:26;10.15;;;6.43;;